createdAt,value
2018-07-08T00:02:21.959Z,2.87
2018-07-08T00:04:50.237Z,2.17
2018-07-08T00:07:19.309Z,2.80
2018-07-08T00:09:47.966Z,2.60
2018-07-08T00:12:17.208Z,2.43
2018-07-08T00:14:45.879Z,2.83
2018-07-08T00:17:14.967Z,3.00
2018-07-08T00:19:43.983Z,2.30
2018-07-08T00:22:12.604Z,2.57
2018-07-08T00:24:41.158Z,2.47
2018-07-08T00:27:09.823Z,2.53
2018-07-08T00:29:38.441Z,2.70
2018-07-08T00:32:06.669Z,2.80
2018-07-08T00:34:35.254Z,3.07
2018-07-08T00:37:03.837Z,2.57
2018-07-08T00:39:32.434Z,2.83
2018-07-08T00:42:01.413Z,2.53
2018-07-08T00:44:30.036Z,2.53
2018-07-08T00:46:59.506Z,2.30
2018-07-08T00:49:28.085Z,2.57
2018-07-08T00:51:56.634Z,2.40
2018-07-08T00:54:25.462Z,2.80
2018-07-08T00:56:54.043Z,2.80
2018-07-08T00:59:22.657Z,3.07
2018-07-08T01:01:51.682Z,3.17
2018-07-08T01:04:19.892Z,2.80
2018-07-08T01:06:49.146Z,2.97
2018-07-08T01:09:17.709Z,2.90
2018-07-08T01:11:46.313Z,2.30
2018-07-08T01:14:14.911Z,2.53
2018-07-08T01:16:43.295Z,2.83
2018-07-08T01:19:11.501Z,3.20
2018-07-08T01:21:40.662Z,2.70
2018-07-08T01:24:08.885Z,2.90
2018-07-08T01:26:38.020Z,3.20
2018-07-08T01:29:07.075Z,3.30
2018-07-08T01:31:35.633Z,3.10
2018-07-08T01:34:04.875Z,3.17
2018-07-08T01:36:34.036Z,2.70
2018-07-08T01:39:02.572Z,2.70
2018-07-08T01:41:31.777Z,2.83
2018-07-08T01:44:00.844Z,2.90
2018-07-08T01:46:29.435Z,3.17
2018-07-08T01:48:57.982Z,2.70
2018-07-08T01:51:26.564Z,2.80
2018-07-08T01:53:55.654Z,2.87
2018-07-08T01:56:25.173Z,3.13
2018-07-08T01:58:53.769Z,3.17
2018-07-08T02:01:22.453Z,2.90
2018-07-08T02:03:52.477Z,2.97
2018-07-08T02:06:21.094Z,2.63
2018-07-08T02:08:51.114Z,3.10
2018-07-08T02:11:20.154Z,2.70
2018-07-08T02:13:48.758Z,3.20
2018-07-08T02:16:17.336Z,2.90
2018-07-08T02:18:46.662Z,2.87
2018-07-08T02:21:15.851Z,3.43
2018-07-08T02:23:45.273Z,2.80
2018-07-08T02:26:13.840Z,3.13
2018-07-08T02:28:42.442Z,3.10
2018-07-08T02:31:11.210Z,3.00
2018-07-08T02:33:39.785Z,3.13
2018-07-08T02:36:08.310Z,3.10
2018-07-08T02:38:38.350Z,3.20
2018-07-08T02:41:07.624Z,2.87
2018-07-08T02:43:36.287Z,3.20
2018-07-08T02:46:04.919Z,3.50
2018-07-08T02:48:33.178Z,2.87
2018-07-08T02:51:01.798Z,3.67
2018-07-08T02:53:30.012Z,3.40
2018-07-08T02:55:59.019Z,3.40
2018-07-08T02:58:27.681Z,2.70
2018-07-08T03:00:56.593Z,2.80
2018-07-08T03:03:25.176Z,3.10
2018-07-08T03:05:54.561Z,2.90
2018-07-08T03:08:23.095Z,3.17
2018-07-08T03:10:51.685Z,2.67
2018-07-08T03:13:20.208Z,2.53
2018-07-08T03:15:48.809Z,3.13
2018-07-08T03:18:17.362Z,3.30
2018-07-08T03:20:45.913Z,2.97
2018-07-08T03:23:14.462Z,2.90
2018-07-08T03:25:43.042Z,3.07
2018-07-08T03:28:11.605Z,2.93
2018-07-08T03:30:40.170Z,2.63
2018-07-08T03:33:08.368Z,3.27
2018-07-08T03:35:36.952Z,3.07
2018-07-08T03:38:05.517Z,3.33
2018-07-08T03:40:34.099Z,3.00
2018-07-08T03:43:02.292Z,3.20
2018-07-08T03:45:30.857Z,3.00
2018-07-08T03:47:59.053Z,3.40
2018-07-08T03:50:27.755Z,3.33
2018-07-08T03:52:56.346Z,3.43
2018-07-08T03:55:25.007Z,3.73
2018-07-08T03:57:54.029Z,3.13
2018-07-08T04:00:22.635Z,3.80
2018-07-08T04:02:51.189Z,3.57
2018-07-08T04:05:19.804Z,3.83
2018-07-08T04:07:48.974Z,3.23
2018-07-08T04:10:17.533Z,3.23
2018-07-08T04:12:46.580Z,2.90
2018-07-08T04:15:15.772Z,3.53
2018-07-08T04:17:45.077Z,3.57
2018-07-08T04:20:14.215Z,2.90
2018-07-08T04:22:42.446Z,3.03
2018-07-08T04:25:11.684Z,2.67
2018-07-08T04:27:40.511Z,3.27
2018-07-08T04:30:09.075Z,3.17
2018-07-08T04:32:37.351Z,3.20
2018-07-08T04:35:05.970Z,3.40
2018-07-08T04:37:34.561Z,3.40
2018-07-08T04:40:03.190Z,2.93
2018-07-08T04:42:31.759Z,3.60
2018-07-08T04:45:00.317Z,2.90
2018-07-08T04:47:28.869Z,3.07
2018-07-08T04:49:57.552Z,3.17
2018-07-08T04:52:26.841Z,3.20
2018-07-08T04:54:55.043Z,3.30
2018-07-08T04:57:23.630Z,3.40
2018-07-08T04:59:52.213Z,3.17
2018-07-08T05:02:20.821Z,3.20
2018-07-08T05:04:49.398Z,3.43
2018-07-08T05:07:18.569Z,3.43
2018-07-08T05:09:47.145Z,3.57
2018-07-08T05:12:17.913Z,3.60
2018-07-08T05:14:46.529Z,3.07
2018-07-08T05:17:15.829Z,3.23
2018-07-08T05:19:44.449Z,3.40
2018-07-08T05:22:13.659Z,3.33
2018-07-08T05:24:43.031Z,2.70
2018-07-08T05:27:11.240Z,2.57
2018-07-08T05:29:39.806Z,2.40
2018-07-08T05:32:09.009Z,2.70
2018-07-08T05:34:37.947Z,2.50
2018-07-08T05:37:07.485Z,2.80
2018-07-08T05:39:36.035Z,2.40
2018-07-08T05:42:04.573Z,2.60
2018-07-08T05:44:33.883Z,2.63
2018-07-08T05:47:03.105Z,2.40
2018-07-08T05:49:31.686Z,2.90
2018-07-08T05:52:01.295Z,3.03
2018-07-08T05:54:29.841Z,3.03
2018-07-08T05:56:58.074Z,3.20
2018-07-08T05:59:26.597Z,2.83
2018-07-08T06:01:56.410Z,2.53
2018-07-08T06:04:24.993Z,2.67
2018-07-08T06:06:53.266Z,2.73
2018-07-08T06:09:22.334Z,2.50
2018-07-08T06:11:51.840Z,3.20
2018-07-08T06:14:20.389Z,2.83
2018-07-08T06:16:49.058Z,3.07
2018-07-08T06:19:17.622Z,2.60
2018-07-08T06:21:45.852Z,2.50
2018-07-08T06:24:14.725Z,2.80
2018-07-08T06:26:44.537Z,2.20
2018-07-08T06:29:13.810Z,2.13
2018-07-08T06:31:43.131Z,2.47
2018-07-08T06:34:12.285Z,2.33
2018-07-08T06:36:40.850Z,2.70
2018-07-08T06:39:09.478Z,2.20
2018-07-08T06:41:38.633Z,1.83
2018-07-08T06:44:07.300Z,2.23
2018-07-08T06:46:35.898Z,2.40
2018-07-08T06:49:04.529Z,2.40
2018-07-08T06:51:32.778Z,1.70
2018-07-08T06:54:01.326Z,1.87
2018-07-08T06:56:29.857Z,2.13
2018-07-08T06:58:59.274Z,2.10
2018-07-08T07:01:27.519Z,1.70
2018-07-08T07:03:56.724Z,1.93
2018-07-08T07:06:25.457Z,1.57
2018-07-08T07:08:54.381Z,2.23
2018-07-08T07:11:22.909Z,1.60
2018-07-08T07:13:51.158Z,1.80
2018-07-08T07:16:19.822Z,2.00
2018-07-08T07:18:48.885Z,1.90
2018-07-08T07:21:17.473Z,1.60
2018-07-08T07:23:46.615Z,1.80
2018-07-08T07:26:15.357Z,1.97
2018-07-08T07:28:43.912Z,2.17
2018-07-08T07:31:12.563Z,1.67
2018-07-08T07:33:41.161Z,2.10
2018-07-08T07:36:09.872Z,1.70
2018-07-08T07:38:38.920Z,1.53
2018-07-08T07:41:07.493Z,1.67
2018-07-08T07:43:36.240Z,1.87
2018-07-08T07:46:05.201Z,1.70
2018-07-08T07:48:34.454Z,2.20
2018-07-08T07:51:03.006Z,1.80
2018-07-08T07:53:31.602Z,1.90
2018-07-08T07:56:00.158Z,1.93
2018-07-08T07:58:28.753Z,1.70
2018-07-08T08:00:57.323Z,1.57
2018-07-08T08:03:27.253Z,1.93
2018-07-08T08:05:56.386Z,1.67
2018-07-08T08:08:24.606Z,1.77
2018-07-08T08:10:53.586Z,1.67
2018-07-08T08:13:22.125Z,1.80
2018-07-08T08:15:51.181Z,1.50
2018-07-08T08:18:19.782Z,2.03
2018-07-08T08:20:48.329Z,1.70
2018-07-08T08:23:16.926Z,2.00
2018-07-08T08:25:45.499Z,1.70
2018-07-08T08:28:14.421Z,1.63
2018-07-08T08:30:43.142Z,1.50
2018-07-08T08:33:11.517Z,1.90
2018-07-08T08:35:39.746Z,2.43
2018-07-08T08:38:09.601Z,1.80
2018-07-08T08:40:38.216Z,2.00
2018-07-08T08:43:07.364Z,1.77
2018-07-08T08:45:37.312Z,1.80
2018-07-08T08:48:07.281Z,1.60
2018-07-08T08:50:35.989Z,2.07
2018-07-08T08:53:04.894Z,1.70
2018-07-08T08:55:34.322Z,1.40
2018-07-08T08:58:03.297Z,1.80
2018-07-08T09:00:32.061Z,2.13
2018-07-08T09:03:00.635Z,1.70
2018-07-08T09:05:29.613Z,1.60
2018-07-08T09:07:58.194Z,1.80
2018-07-08T09:10:27.505Z,1.97
2018-07-08T09:12:56.098Z,1.70
2018-07-08T09:15:24.658Z,1.73
2018-07-08T09:17:53.474Z,1.90
2018-07-08T09:20:22.100Z,1.80
2018-07-08T09:22:50.690Z,2.00
2018-07-08T09:25:19.009Z,1.90
2018-07-08T09:27:48.440Z,1.60
2018-07-08T09:30:17.009Z,2.00
2018-07-08T09:32:46.286Z,1.50
2018-07-08T09:35:14.997Z,1.77
2018-07-08T09:37:43.759Z,1.93
2018-07-08T09:40:12.463Z,2.17
2018-07-08T09:42:41.154Z,2.10
2018-07-08T09:45:10.210Z,2.23
2018-07-08T09:47:38.919Z,1.80
2018-07-08T09:50:08.096Z,1.67
2018-07-08T09:52:36.686Z,1.77
2018-07-08T09:55:05.393Z,1.80
2018-07-08T09:57:33.931Z,1.83
2018-07-08T10:00:02.533Z,1.70
2018-07-08T10:02:31.081Z,1.90
2018-07-08T10:04:59.880Z,2.27
2018-07-08T10:07:28.532Z,1.80
2018-07-08T10:09:57.157Z,1.67
2018-07-08T10:12:26.473Z,1.90
2018-07-08T10:14:55.346Z,1.60
2018-07-08T10:17:23.893Z,2.00
2018-07-08T10:19:53.459Z,1.70
2018-07-08T10:22:21.878Z,1.90
2018-07-08T10:24:50.454Z,1.50
2018-07-08T10:27:31.881Z,1.80
2018-07-08T10:30:00.567Z,1.40
2018-07-08T10:32:29.929Z,1.27
2018-07-08T10:34:58.450Z,1.37
2018-07-08T10:37:27.757Z,1.73
2018-07-08T10:39:56.304Z,1.57
2018-07-08T10:42:24.883Z,1.63
2018-07-08T10:44:53.421Z,1.30
2018-07-08T10:47:22.091Z,1.40
2018-07-08T10:49:50.632Z,1.37
2018-07-08T10:52:19.320Z,1.30
2018-07-08T10:54:47.876Z,1.20
2018-07-08T10:57:16.098Z,1.20
2018-07-08T10:59:44.716Z,1.03
2018-07-08T11:02:13.302Z,1.13
2018-07-08T11:04:41.858Z,1.40
2018-07-08T11:07:11.082Z,1.00
2018-07-08T11:09:40.399Z,1.10
2018-07-08T11:12:08.651Z,1.13
2018-07-08T11:14:37.190Z,0.97
2018-07-08T11:17:05.890Z,0.90
2018-07-08T11:19:34.526Z,0.90
2018-07-08T11:22:02.808Z,0.80
2018-07-08T11:24:31.406Z,0.87
2018-07-08T11:26:59.680Z,1.30
2018-07-08T11:29:27.868Z,1.03
2018-07-08T11:31:57.047Z,1.10
2018-07-08T11:34:25.678Z,1.10
2018-07-08T11:36:55.230Z,1.00
2018-07-08T11:39:23.782Z,1.00
2018-07-08T11:41:53.011Z,1.10
2018-07-08T11:44:21.702Z,1.50
2018-07-08T11:46:51.201Z,1.30
2018-07-08T11:49:19.768Z,0.90
2018-07-08T11:51:48.348Z,0.70
2018-07-08T11:54:17.349Z,1.10
2018-07-08T11:56:45.913Z,0.83
2018-07-08T11:59:14.740Z,1.03
2018-07-08T12:01:43.322Z,0.80
2018-07-08T12:04:12.312Z,1.10
2018-07-08T12:06:41.426Z,0.87
2018-07-08T12:09:10.508Z,1.10
2018-07-08T12:11:39.658Z,1.00
2018-07-08T12:14:08.238Z,0.80
2018-07-08T12:16:36.821Z,0.70
2018-07-08T12:19:05.750Z,0.80
2018-07-08T12:21:34.310Z,0.97
2018-07-08T12:24:03.598Z,0.70
2018-07-08T12:26:32.501Z,0.80
2018-07-08T12:29:01.090Z,1.00
2018-07-08T12:31:30.288Z,0.90
2018-07-08T12:33:58.819Z,0.97
2018-07-08T12:36:27.402Z,0.90
2018-07-08T12:38:55.967Z,0.73
2018-07-08T12:41:24.548Z,1.00
2018-07-08T12:43:53.975Z,0.87
2018-07-08T12:46:22.549Z,1.17
2018-07-08T12:48:51.096Z,1.03
2018-07-08T12:51:19.690Z,1.03
2018-07-08T12:53:48.242Z,0.77
2018-07-08T12:56:16.875Z,0.97
2018-07-08T12:58:45.736Z,0.77
2018-07-08T13:01:14.373Z,0.90
2018-07-08T13:03:44.162Z,0.70
2018-07-08T13:06:12.740Z,0.70
2018-07-08T13:08:41.303Z,0.90
2018-07-08T13:11:09.876Z,0.60
2018-07-08T13:13:38.446Z,0.90
2018-07-08T13:16:07.697Z,0.70
2018-07-08T13:18:36.689Z,0.60
2018-07-08T13:21:05.667Z,0.70
2018-07-08T13:23:34.219Z,0.93
2018-07-08T13:26:02.815Z,0.80
2018-07-08T13:28:31.352Z,0.60
2018-07-08T13:31:00.531Z,0.90
2018-07-08T13:33:29.094Z,0.80
2018-07-08T13:35:57.665Z,0.87
2018-07-08T13:38:26.926Z,0.77
2018-07-08T13:40:55.534Z,0.70
2018-07-08T13:43:24.084Z,0.70
2018-07-08T13:45:53.257Z,1.27
2018-07-08T13:48:21.880Z,1.00
2018-07-08T13:50:51.472Z,1.10
2018-07-08T13:53:20.636Z,1.20
2018-07-08T13:55:49.945Z,0.80
2018-07-08T13:58:18.529Z,0.77
2018-07-08T14:00:47.677Z,0.50
2018-07-08T14:03:16.284Z,0.63
2018-07-08T14:05:45.190Z,0.67
2018-07-08T14:08:14.401Z,0.60
2018-07-08T14:10:43.047Z,0.57
2018-07-08T14:13:11.880Z,0.80
2018-07-08T14:15:40.460Z,0.70
2018-07-08T14:18:09.677Z,0.67
2018-07-08T14:20:38.348Z,0.90
2018-07-08T14:23:06.584Z,0.80
2018-07-08T14:25:34.851Z,0.50
2018-07-08T14:28:03.450Z,1.07
2018-07-08T14:30:32.917Z,0.63
2018-07-08T14:33:01.673Z,0.63
2018-07-08T14:35:31.863Z,0.80
2018-07-08T14:38:00.097Z,0.63
2018-07-08T14:40:28.686Z,0.60
2018-07-08T14:42:57.290Z,0.73
2018-07-08T14:45:25.540Z,0.70
2018-07-08T14:47:54.128Z,0.70
2018-07-08T14:50:22.697Z,1.37
2018-07-08T14:52:51.267Z,0.90
2018-07-08T14:55:20.017Z,0.70
2018-07-08T14:57:48.227Z,0.70
2018-07-08T15:00:16.823Z,1.10
2018-07-08T15:02:45.358Z,0.90
2018-07-08T15:05:13.597Z,0.90
2018-07-08T15:07:42.210Z,0.80
2018-07-08T15:10:10.788Z,1.00
2018-07-08T15:12:39.605Z,1.20
2018-07-08T15:15:07.833Z,0.90
2018-07-08T15:17:36.614Z,0.80
2018-07-08T15:20:05.308Z,0.83
2018-07-08T15:22:34.302Z,0.90
2018-07-08T15:25:02.938Z,0.80
2018-07-08T15:27:31.810Z,0.80
2018-07-08T15:30:00.066Z,0.63
2018-07-08T15:32:28.655Z,0.97
2018-07-08T15:34:57.234Z,1.03
2018-07-08T15:37:25.874Z,0.80
2018-07-08T15:39:54.614Z,0.90
2018-07-08T15:42:23.165Z,0.83
2018-07-08T15:44:51.780Z,0.70
2018-07-08T15:47:20.459Z,0.70
2018-07-08T15:49:49.038Z,0.70
2018-07-08T15:52:17.641Z,0.70
2018-07-08T15:54:46.263Z,0.73
2018-07-08T15:57:15.536Z,1.30
2018-07-08T15:59:44.180Z,1.17
2018-07-08T16:02:12.821Z,1.17
2018-07-08T16:04:41.018Z,0.80
2018-07-08T16:07:09.751Z,1.50
2018-07-08T16:09:38.546Z,0.90
2018-07-08T16:12:07.125Z,0.90
2018-07-08T16:14:35.749Z,0.83
2018-07-08T16:17:03.989Z,0.70
2018-07-08T16:19:32.598Z,1.33
2018-07-08T16:22:04.082Z,0.77
2018-07-08T16:24:32.680Z,0.83
2018-07-08T16:27:01.318Z,1.20
2018-07-08T16:29:29.886Z,0.90
2018-07-08T16:31:59.138Z,0.87
2018-07-08T16:34:27.714Z,0.60
2018-07-08T16:36:56.305Z,0.70
2018-07-08T16:39:25.262Z,0.60
2018-07-08T16:41:53.859Z,0.63
2018-07-08T16:44:22.501Z,0.80
2018-07-08T16:46:51.058Z,0.70
2018-07-08T16:49:20.618Z,0.77
2018-07-08T16:51:49.178Z,0.80
2018-07-08T16:54:17.753Z,1.27
2018-07-08T16:56:46.343Z,0.90
2018-07-08T16:59:14.959Z,1.20
2018-07-08T17:01:43.529Z,0.73
2018-07-08T17:04:12.203Z,0.73
2018-07-08T17:06:41.576Z,0.97
2018-07-08T17:09:11.101Z,0.70
2018-07-08T17:11:40.350Z,1.00
2018-07-08T17:14:08.711Z,1.00
2018-07-08T17:16:37.878Z,1.00
2018-07-08T17:19:06.461Z,0.70
2018-07-08T17:21:35.704Z,0.90
2018-07-08T17:24:04.253Z,1.10
2018-07-08T17:26:32.959Z,1.43
2018-07-08T17:29:01.225Z,1.20
2018-07-08T17:31:29.825Z,0.93
2018-07-08T17:33:59.222Z,1.13
2018-07-08T17:36:27.846Z,1.10
2018-07-08T17:38:57.205Z,0.70
2018-07-08T17:41:25.808Z,1.00
2018-07-08T17:43:54.334Z,0.97
2018-07-08T17:46:23.131Z,0.80
2018-07-08T17:48:52.194Z,1.00
2018-07-08T17:51:20.452Z,1.10
2018-07-08T17:53:49.036Z,0.90
2018-07-08T17:56:17.644Z,0.80
2018-07-08T17:58:45.837Z,1.00
2018-07-08T18:01:14.510Z,0.70
2018-07-08T18:03:43.139Z,0.83
2018-07-08T18:06:12.669Z,1.07
2018-07-08T18:08:42.005Z,0.80
2018-07-08T18:11:10.659Z,1.10
2018-07-08T18:13:39.244Z,0.90
2018-07-08T18:16:08.469Z,1.03
2018-07-08T18:18:37.053Z,1.23
2018-07-08T18:21:05.265Z,1.10
2018-07-08T18:23:34.174Z,1.40
2018-07-08T18:26:02.772Z,1.30
2018-07-08T18:28:31.337Z,1.80
2018-07-08T18:30:59.906Z,1.23
2018-07-08T18:33:28.518Z,1.03
2018-07-08T18:35:57.030Z,0.80
2018-07-08T18:38:25.290Z,1.30
2018-07-08T18:40:54.225Z,1.43
2018-07-08T18:43:23.557Z,1.50
2018-07-08T18:45:52.738Z,1.20
2018-07-08T18:48:21.770Z,1.60
2018-07-08T18:50:50.337Z,1.37
2018-07-08T18:53:18.968Z,1.27
2018-07-08T18:55:48.135Z,1.60
2018-07-08T18:58:16.924Z,1.20
2018-07-08T19:00:45.471Z,1.27
2018-07-08T19:03:14.681Z,0.87
2018-07-08T19:05:44.156Z,1.00
2018-07-08T19:08:12.689Z,0.80
2018-07-08T19:10:41.301Z,0.80
2018-07-08T19:13:10.402Z,1.10
2018-07-08T19:15:39.492Z,1.10
2018-07-08T19:18:10.232Z,1.50
2018-07-08T19:20:40.031Z,1.10
2018-07-08T19:23:09.209Z,1.20
2018-07-08T19:25:39.053Z,1.03
2018-07-08T19:28:07.625Z,0.90
2018-07-08T19:30:37.730Z,1.20
2018-07-08T19:33:06.535Z,1.60
2018-07-08T19:35:36.531Z,1.30
2018-07-08T19:38:05.242Z,1.00
2018-07-08T19:40:35.118Z,0.70
2018-07-08T19:43:03.803Z,0.90
2018-07-08T19:45:32.457Z,0.83
2018-07-08T19:48:01.670Z,0.80
2018-07-08T19:50:30.354Z,1.03
2018-07-08T19:53:00.098Z,1.03
2018-07-08T19:55:28.743Z,1.00
2018-07-08T19:57:58.010Z,1.30
2018-07-08T20:00:28.046Z,1.30
2018-07-08T20:02:57.279Z,1.40
2018-07-08T20:05:26.270Z,1.13
2018-07-08T20:07:54.846Z,1.57
2018-07-08T20:10:24.878Z,1.10
2018-07-08T20:12:53.706Z,1.30
2018-07-08T20:15:22.305Z,1.37
2018-07-08T20:17:50.976Z,1.30
2018-07-08T20:20:19.680Z,1.10
2018-07-08T20:22:49.144Z,0.90
2018-07-08T20:25:18.347Z,0.93
2018-07-08T20:27:46.998Z,0.97
2018-07-08T20:30:15.586Z,1.23
2018-07-08T20:32:44.264Z,0.80
2018-07-08T20:35:13.749Z,1.13
2018-07-08T20:37:42.314Z,0.83
2018-07-08T20:40:10.877Z,1.23
2018-07-08T20:42:40.005Z,0.90
2018-07-08T20:45:08.861Z,1.33
2018-07-08T20:47:38.843Z,0.80
2018-07-08T20:50:07.123Z,1.03
2018-07-08T20:52:35.497Z,1.07
2018-07-08T20:55:03.713Z,0.67
2018-07-08T20:57:32.358Z,0.90
2018-07-08T21:00:01.186Z,1.03
2018-07-08T21:02:29.872Z,1.30
2018-07-08T21:04:58.527Z,1.57
2018-07-08T21:07:26.765Z,1.43
2018-07-08T21:09:55.380Z,1.13
2018-07-08T21:12:23.653Z,1.10
2018-07-08T21:14:53.448Z,1.03
2018-07-08T21:17:21.678Z,1.50
2018-07-08T21:19:50.382Z,1.57
2018-07-08T21:22:19.066Z,0.90
2018-07-08T21:24:47.759Z,0.77
2018-07-08T21:27:16.609Z,1.00
2018-07-08T21:29:45.416Z,0.93
2018-07-08T21:32:14.671Z,1.10
2018-07-08T21:34:43.274Z,1.40
2018-07-08T21:37:11.497Z,1.40
2018-07-08T21:39:40.157Z,1.00
2018-07-08T21:42:08.693Z,1.17
2018-07-08T21:44:37.903Z,0.93
2018-07-08T21:47:06.565Z,1.10
2018-07-08T21:49:35.261Z,1.00
2018-07-08T21:52:04.014Z,1.00
2018-07-08T21:54:32.601Z,0.87
2018-07-08T21:57:01.754Z,1.00
2018-07-08T21:59:30.367Z,1.00
2018-07-08T22:02:04.394Z,0.90
2018-07-08T22:04:33.320Z,1.00
2018-07-08T22:07:07.195Z,0.97
2018-07-08T22:09:36.013Z,1.60
2018-07-08T22:12:04.621Z,1.00
2018-07-08T22:14:33.209Z,1.20
2018-07-08T22:17:02.714Z,0.80
2018-07-08T22:19:31.307Z,1.10
2018-07-08T22:21:59.528Z,1.40
2018-07-08T22:24:28.145Z,1.30
2018-07-08T22:26:56.714Z,1.33
2018-07-08T22:29:25.299Z,1.30
2018-07-08T22:31:54.292Z,1.27
2018-07-08T22:34:23.028Z,1.13
2018-07-08T22:36:51.269Z,1.43
2018-07-08T22:39:21.148Z,1.30
2018-07-08T22:41:49.714Z,1.37
2018-07-08T22:44:18.894Z,1.20
2018-07-08T22:46:47.104Z,1.33
2018-07-08T22:49:15.656Z,1.30
2018-07-08T22:51:43.894Z,1.10
2018-07-08T22:54:12.409Z,1.40
2018-07-08T22:56:40.650Z,1.37
2018-07-08T22:59:09.238Z,1.40
2018-07-08T23:02:45.307Z,0.83
2018-07-08T23:05:14.462Z,1.03
2018-07-08T23:07:43.662Z,1.10
2018-07-08T23:10:12.825Z,1.20
2018-07-08T23:12:41.377Z,1.23
2018-07-08T23:15:09.934Z,1.13
2018-07-08T23:17:40.435Z,1.10
2018-07-08T23:20:08.874Z,1.33
2018-07-08T23:22:48.651Z,1.10
2018-07-08T23:25:17.195Z,1.20
2018-07-08T23:27:45.878Z,1.17
2018-07-08T23:30:14.490Z,1.37
2018-07-08T23:32:43.093Z,1.40
2018-07-08T23:35:11.289Z,1.40
2018-07-08T23:37:39.872Z,1.50
2018-07-08T23:40:08.434Z,1.53
2018-07-08T23:42:36.688Z,1.30
2018-07-08T23:45:05.289Z,1.50
2018-07-08T23:47:34.793Z,1.60
2018-07-08T23:50:03.404Z,1.70
2018-07-08T23:52:31.685Z,1.70
2018-07-08T23:55:00.271Z,1.20
2018-07-08T23:57:29.642Z,1.10
2018-07-08T23:59:58.231Z,1.20
